Time,TemperatureF,DewpointF,PressureIn,WindDirection,WindDirectionDegrees,WindSpeedMPH,WindSpeedGustMPH,Humidity,HourlyPrecipIn,Conditions,Clouds,dailyrainin,SoftwareType,DateUTC
2013-03-14 00:13:00,31.3,18.0,30.41,NNE,23,1.0,1.0,57,0.00,,,0.00,weatherlink.com 1.10,2013-03-14 05:13:00,
2013-03-14 00:27:00,32.1,17.0,30.41,NNE,23,1.0,1.0,55,0.00,,,0.00,weatherlink.com 1.10,2013-03-14 05:27:00,
2013-03-14 00:43:00,30.4,18.0,30.41,WNW,290,1.0,2.0,60,0.00,,,0.00,weatherlink.com 1.10,2013-03-14 05:43:00,
2013-03-14 00:57:00,30.4,18.0,30.40,WNW,290,1.0,1.0,61,0.00,,,0.00,weatherlink.com 1.10,2013-03-14 05:57:00,
2013-03-14 01:12:00,30.0,18.0,30.40,WNW,301,1.0,2.0,61,0.00,,,0.00,weatherlink.com 1.10,2013-03-14 06:12:00,
2013-03-14 01:27:00,30.1,18.0,30.41,NW,305,1.0,2.0,62,0.00,,,0.00,weatherlink.com 1.10,2013-03-14 06:27:00,
2013-03-14 01:42:00,30.2,18.0,30.41,NW,305,1.0,2.0,62,0.00,,,0.00,weatherlink.com 1.10,2013-03-14 06:42:00,
2013-03-14 01:57:00,29.7,19.0,30.40,NW,305,1.0,2.0,64,0.00,,,0.00,weatherlink.com 1.10,2013-03-14 06:57:00,
2013-03-14 02:12:00,29.6,19.0,30.40,WNW,297,2.0,2.0,65,0.00,,,0.00,weatherlink.com 1.10,2013-03-14 07:12:00,
2013-03-14 02:27:00,29.6,19.0,30.40,WNW,298,0.0,1.0,64,0.00,,,0.00,weatherlink.com 1.10,2013-03-14 07:27:00,
2013-03-14 02:42:00,30.1,18.0,30.40,West,278,1.0,2.0,60,0.00,,,0.00,weatherlink.com 1.10,2013-03-14 07:42:00,
2013-03-14 02:58:00,30.4,17.0,30.40,NW,307,0.0,2.0,59,0.00,,,0.00,weatherlink.com 1.10,2013-03-14 07:58:00,
2013-03-14 03:12:00,30.6,17.0,30.39,South,173,3.0,4.0,57,0.00,,,0.00,weatherlink.com 1.10,2013-03-14 08:12:00,
2013-03-14 03:27:00,29.7,17.0,30.38,WSW,248,2.0,4.0,60,0.00,,,0.00,weatherlink.com 1.10,2013-03-14 08:27:00,
2013-03-14 03:42:00,30.4,17.0,30.37,WSW,252,2.0,2.0,57,0.00,,,0.00,weatherlink.com 1.10,2013-03-14 08:42:00,
2013-03-14 03:57:00,31.6,16.0,30.37,West,277,1.0,4.0,53,0.00,,,0.00,weatherlink.com 1.10,2013-03-14 08:57:00,
2013-03-14 04:12:00,30.2,16.0,30.37,NW,309,1.0,2.0,57,0.00,,,0.00,weatherlink.com 1.10,2013-03-14 09:12:00,
2013-03-14 04:27:00,30.0,17.0,30.36,WNW,284,4.0,4.0,59,0.00,,,0.00,weatherlink.com 1.10,2013-03-14 09:27:00,
2013-03-14 04:42:00,30.2,17.0,30.36,WNW,286,1.0,3.0,59,0.00,,,0.00,weatherlink.com 1.10,2013-03-14 09:42:00,
2013-03-14 04:57:00,30.8,17.0,30.35,West,263,2.0,7.0,58,0.00,,,0.00,weatherlink.com 1.10,2013-03-14 09:57:00,
2013-03-14 05:12:00,31.4,18.0,30.35,WSW,249,4.0,7.0,57,0.00,,,0.00,weatherlink.com 1.10,2013-03-14 10:12:00,
2013-03-14 05:27:00,31.6,18.0,30.36,West,262,1.0,4.0,57,0.00,,,0.00,weatherlink.com 1.10,2013-03-14 10:27:00,
2013-03-14 05:42:00,31.4,18.0,30.35,WNW,291,0.0,4.0,58,0.00,,,0.00,weatherlink.com 1.10,2013-03-14 10:42:00,
2013-03-14 05:57:00,31.1,19.0,30.35,West,260,4.0,5.0,61,0.00,,,0.00,weatherlink.com 1.10,2013-03-14 10:57:00,
2013-03-14 06:12:00,31.4,18.0,30.34,West,266,4.0,7.0,58,0.00,,,0.00,weatherlink.com 1.10,2013-03-14 11:12:00,
2013-03-14 06:28:00,31.9,18.0,30.34,WSW,246,5.0,7.0,58,0.00,,,0.00,weatherlink.com 1.10,2013-03-14 11:28:00,
2013-03-14 06:42:00,31.6,19.0,30.34,WSW,257,5.0,7.0,61,0.00,,,0.00,weatherlink.com 1.10,2013-03-14 11:42:00,
2013-03-14 06:57:00,30.8,20.0,30.34,SW,233,3.0,6.0,65,0.00,,,0.00,weatherlink.com 1.10,2013-03-14 11:57:00,
2013-03-14 07:12:00,31.7,19.0,30.34,West,274,3.0,7.0,60,0.00,,,0.00,weatherlink.com 1.10,2013-03-14 12:12:00,
2013-03-14 07:27:00,32.1,19.0,30.35,WNW,294,2.0,6.0,59,0.00,,,0.00,weatherlink.com 1.10,2013-03-14 12:27:00,
2013-03-14 07:43:00,32.6,20.0,30.34,WSW,255,5.0,8.0,59,0.00,,,0.00,weatherlink.com 1.10,2013-03-14 12:43:00,
2013-03-14 07:57:00,33.0,19.0,30.34,WSW,258,5.0,10.0,57,0.00,,,0.00,weatherlink.com 1.10,2013-03-14 12:57:00,
2013-03-14 08:13:00,33.5,19.0,30.34,West,270,9.0,11.0,55,0.00,,,0.00,weatherlink.com 1.10,2013-03-14 13:13:00,
2013-03-14 08:28:00,33.7,20.0,30.35,West,270,4.0,9.0,58,0.00,,,0.00,weatherlink.com 1.10,2013-03-14 13:28:00,
2013-03-14 08:43:00,33.2,21.0,30.35,SW,222,4.0,6.0,61,0.00,,,0.00,weatherlink.com 1.10,2013-03-14 13:43:00,
2013-03-14 08:59:00,33.1,21.0,30.34,SW,228,2.0,6.0,62,0.00,,,0.00,weatherlink.com 1.10,2013-03-14 13:59:00,
2013-03-14 09:13:00,32.9,21.0,30.34,SW,217,6.0,6.0,62,0.00,,,0.00,weatherlink.com 1.10,2013-03-14 14:13:00,
2013-03-14 09:28:00,33.5,21.0,30.34,WSW,252,6.0,8.0,60,0.00,,,0.00,weatherlink.com 1.10,2013-03-14 14:28:00,
2013-03-14 09:43:00,34.0,21.0,30.33,SW,233,4.0,7.0,59,0.00,,,0.00,weatherlink.com 1.10,2013-03-14 14:43:00,
2013-03-14 09:58:00,34.5,21.0,30.32,WNW,295,5.0,11.0,57,0.00,,,0.00,weatherlink.com 1.10,2013-03-14 14:58:00,
2013-03-14 10:14:00,35.3,20.0,30.31,NW,307,8.0,19.0,53,0.00,,,0.00,weatherlink.com 1.10,2013-03-14 15:14:00,
2013-03-14 10:28:00,35.4,19.0,30.30,WNW,288,6.0,12.0,52,0.00,,,0.00,weatherlink.com 1.10,2013-03-14 15:28:00,
2013-03-14 10:43:00,36.5,20.0,30.29,WNW,296,3.0,16.0,51,0.00,,,0.00,weatherlink.com 1.10,2013-03-14 15:43:00,
2013-03-14 10:58:00,36.9,20.0,30.29,West,264,7.0,18.0,51,0.00,,,0.00,weatherlink.com 1.10,2013-03-14 15:58:00,
2013-03-14 11:13:00,36.6,21.0,30.27,West,264,15.0,26.0,53,0.00,,,0.00,weatherlink.com 1.10,2013-03-14 16:13:00,
2013-03-14 11:28:00,36.7,22.0,30.25,South,191,4.0,15.0,55,0.00,,,0.00,weatherlink.com 1.10,2013-03-14 16:28:00,
2013-03-14 11:43:00,36.0,23.0,30.26,WSW,248,5.0,12.0,59,0.00,,,0.00,weatherlink.com 1.10,2013-03-14 16:43:00,
2013-03-14 11:58:00,38.0,24.0,30.24,WNW,283,8.0,18.0,57,0.00,,,0.00,weatherlink.com 1.10,2013-03-14 16:58:00,
2013-03-14 12:13:00,39.2,25.0,30.22,West,271,6.0,17.0,56,0.00,,,0.00,weatherlink.com 1.10,2013-03-14 17:13:00,
2013-03-14 12:28:00,39.9,25.0,30.23,WSW,245,5.0,11.0,56,0.00,,,0.00,weatherlink.com 1.10,2013-03-14 17:28:00,
2013-03-14 12:43:00,39.0,26.0,30.20,WSW,257,6.0,11.0,60,0.00,,,0.00,weatherlink.com 1.10,2013-03-14 17:43:00,
2013-03-14 12:58:00,39.4,28.0,30.21,West,269,0.0,8.0,64,0.00,,,0.00,weatherlink.com 1.10,2013-03-14 17:58:00,
2013-03-14 13:13:00,40.2,28.0,30.20,WNW,293,5.0,11.0,61,0.00,,,0.00,weatherlink.com 1.10,2013-03-14 18:13:00,
2013-03-14 13:28:00,41.4,28.0,30.23,ESE,115,6.0,8.0,59,0.00,,,0.00,weatherlink.com 1.10,2013-03-14 18:28:00,
2013-03-14 13:43:00,41.3,29.0,30.20,West,263,5.0,8.0,61,0.00,,,0.00,weatherlink.com 1.10,2013-03-14 18:43:00,
2013-03-14 13:58:00,43.4,29.0,30.16,West,263,7.0,13.0,58,0.00,,,0.00,weatherlink.com 1.10,2013-03-14 18:58:00,
2013-03-14 14:13:00,45.6,28.0,30.15,WNW,288,7.0,15.0,51,0.00,,,0.00,weatherlink.com 1.10,2013-03-14 19:13:00,
2013-03-14 14:29:00,46.5,28.0,30.14,NW,315,6.0,13.0,49,0.00,,,0.00,weatherlink.com 1.10,2013-03-14 19:29:00,
2013-03-14 14:44:00,47.3,28.0,30.14,WNW,288,6.0,17.0,48,0.00,,,0.00,weatherlink.com 1.10,2013-03-14 19:44:00,
2013-03-14 15:00:00,47.1,28.0,30.13,WNW,302,6.0,13.0,48,0.00,,,0.00,weatherlink.com 1.10,2013-03-14 20:00:00,
2013-03-14 15:14:00,47.4,29.0,30.13,WNW,283,4.0,14.0,50,0.00,,,0.00,weatherlink.com 1.10,2013-03-14 20:14:00,
2013-03-14 15:29:00,47.9,29.0,30.13,WSW,239,9.0,14.0,48,0.00,,,0.00,weatherlink.com 1.10,2013-03-14 20:29:00,
2013-03-14 15:44:00,49.0,29.0,30.13,West,279,5.0,12.0,46,0.00,,,0.00,weatherlink.com 1.10,2013-03-14 20:44:00,
2013-03-14 15:59:00,50.1,29.0,30.13,WNW,295,6.0,11.0,45,0.00,,,0.00,weatherlink.com 1.10,2013-03-14 20:59:00,
2013-03-14 16:14:00,50.9,29.0,30.13,WNW,296,6.0,11.0,43,0.00,,,0.00,weatherlink.com 1.10,2013-03-14 21:14:00,
2013-03-14 16:29:00,52.3,30.0,30.11,WNW,291,7.0,14.0,42,0.00,,,0.00,weatherlink.com 1.10,2013-03-14 21:29:00,
2013-03-14 16:44:00,51.8,29.0,30.11,WNW,294,3.0,12.0,42,0.00,,,0.00,weatherlink.com 1.10,2013-03-14 21:44:00,
2013-03-14 16:59:00,52.9,30.0,30.11,WSW,254,7.0,10.0,42,0.00,,,0.00,weatherlink.com 1.10,2013-03-14 21:59:00,
2013-03-14 17:14:00,52.9,30.0,30.10,WSW,257,8.0,11.0,41,0.00,,,0.00,weatherlink.com 1.10,2013-03-14 22:14:00,
2013-03-14 17:29:00,52.8,29.0,30.10,West,276,6.0,10.0,41,0.00,,,0.00,weatherlink.com 1.10,2013-03-14 22:29:00,
2013-03-14 17:44:00,51.3,30.0,30.10,SW,235,2.0,10.0,44,0.00,,,0.00,weatherlink.com 1.10,2013-03-14 22:44:00,
2013-03-14 17:59:00,50.2,30.0,30.11,SW,225,6.0,10.0,47,0.00,,,0.00,weatherlink.com 1.10,2013-03-14 22:59:00,
2013-03-14 18:14:00,49.9,30.0,30.10,SW,224,7.0,8.0,47,0.00,,,0.00,weatherlink.com 1.10,2013-03-14 23:14:00,
2013-03-14 18:29:00,49.8,31.0,30.10,SW,214,5.0,9.0,48,0.00,,,0.00,weatherlink.com 1.10,2013-03-14 23:29:00,
2013-03-14 18:44:00,49.3,31.0,30.10,SSE,165,5.0,8.0,49,0.00,,,0.00,weatherlink.com 1.10,2013-03-14 23:44:00,
2013-03-14 18:59:00,48.5,31.0,30.10,SSW,205,4.0,10.0,52,0.00,,,0.00,weatherlink.com 1.10,2013-03-14 23:59:00,
2013-03-14 19:14:00,47.3,31.0,30.11,SSW,198,6.0,10.0,53,0.00,,,0.00,weatherlink.com 1.10,2013-03-15 00:14:00,
2013-03-14 19:29:00,46.1,31.0,30.11,South,180,5.0,8.0,56,0.00,,,0.00,weatherlink.com 1.10,2013-03-15 00:29:00,
2013-03-14 19:44:00,45.1,30.0,30.11,SSE,152,4.0,7.0,57,0.00,,,0.00,weatherlink.com 1.10,2013-03-15 00:44:00,
2013-03-14 19:59:00,44.4,30.0,30.11,ESE,116,3.0,8.0,58,0.00,,,0.00,weatherlink.com 1.10,2013-03-15 00:59:00,
2013-03-14 20:14:00,43.3,30.0,30.11,SSE,162,6.0,8.0,61,0.00,,,0.00,weatherlink.com 1.10,2013-03-15 01:14:00,
2013-03-14 20:29:00,42.5,30.0,30.11,South,186,8.0,10.0,62,0.00,,,0.00,weatherlink.com 1.10,2013-03-15 01:29:00,
2013-03-14 20:44:00,42.4,30.0,30.11,South,186,7.0,12.0,63,0.00,,,0.00,weatherlink.com 1.10,2013-03-15 01:44:00,
2013-03-14 20:59:00,42.0,31.0,30.11,SW,214,7.0,13.0,65,0.00,,,0.00,weatherlink.com 1.10,2013-03-15 01:59:00,
2013-03-14 21:14:00,41.5,31.0,30.11,South,180,7.0,11.0,67,0.00,,,0.00,weatherlink.com 1.10,2013-03-15 02:14:00,
2013-03-14 21:29:00,41.3,31.0,30.11,South,185,6.0,12.0,68,0.00,,,0.00,weatherlink.com 1.10,2013-03-15 02:29:00,
2013-03-14 21:44:00,41.2,31.0,30.11,South,185,4.0,12.0,68,0.00,,,0.00,weatherlink.com 1.10,2013-03-15 02:44:00,
2013-03-14 21:59:00,40.9,31.0,30.11,SSE,162,4.0,8.0,69,0.00,,,0.00,weatherlink.com 1.10,2013-03-15 02:59:00,
2013-03-14 22:14:00,40.3,32.0,30.11,South,174,3.0,7.0,71,0.00,,,0.00,weatherlink.com 1.10,2013-03-15 03:14:00,
2013-03-14 22:29:00,40.0,32.0,30.10,South,173,4.0,5.0,72,0.00,,,0.00,weatherlink.com 1.10,2013-03-15 03:29:00,
2013-03-14 22:44:00,39.2,32.0,30.11,SE,146,4.0,5.0,74,0.00,,,0.00,weatherlink.com 1.10,2013-03-15 03:44:00,
2013-03-14 22:59:00,38.7,31.0,30.11,South,176,4.0,6.0,75,0.00,,,0.00,weatherlink.com 1.10,2013-03-15 03:59:00,
2013-03-14 23:14:00,38.2,32.0,30.11,SSE,167,3.0,6.0,77,0.00,,,0.00,weatherlink.com 1.10,2013-03-15 04:14:00,
2013-03-14 23:30:00,38.0,31.0,30.11,SSE,162,3.0,4.0,77,0.00,,,0.00,weatherlink.com 1.10,2013-03-15 04:30:00,
2013-03-14 23:45:00,37.5,31.0,30.10,ESE,116,3.0,4.0,78,0.00,,,0.00,weatherlink.com 1.10,2013-03-15 04:45:00,